createdAt,value
2024-04-13T00:00:02.413Z,75
2024-04-13T00:01:33.008Z,75
2024-04-13T00:03:03.623Z,75
2024-04-13T00:04:34.337Z,75
2024-04-13T00:06:04.800Z,75
2024-04-13T00:07:35.444Z,75
2024-04-13T00:09:06.057Z,75
2024-04-13T00:11:08.835Z,75
2024-04-13T00:12:39.713Z,75
2024-04-13T00:14:10.223Z,75
2024-04-13T00:15:41.171Z,75
2024-04-13T00:17:11.810Z,75
2024-04-13T00:19:14.567Z,74
2024-04-13T00:20:45.156Z,74
2024-04-13T00:22:16.014Z,75
2024-04-13T00:23:46.790Z,74
2024-04-13T00:25:17.274Z,75
2024-04-13T00:26:47.842Z,75
2024-04-13T00:28:18.344Z,74
2024-04-13T00:29:49.060Z,75
2024-04-13T00:31:19.750Z,74
2024-04-13T00:32:50.306Z,75
2024-04-13T00:34:21.315Z,74
2024-04-13T00:35:51.838Z,74
2024-04-13T00:37:22.770Z,75
2024-04-13T00:38:53.215Z,75
2024-04-13T00:40:23.875Z,75
2024-04-13T00:42:26.645Z,74
2024-04-13T00:43:57.140Z,74
2024-04-13T00:45:27.673Z,75
2024-04-13T00:46:58.670Z,75
2024-04-13T00:48:29.508Z,75
2024-04-13T00:49:59.972Z,75
2024-04-13T00:52:03.010Z,75
2024-04-13T00:53:33.600Z,75
2024-04-13T00:55:36.219Z,74
2024-04-13T00:57:07.253Z,74
2024-04-13T00:58:38.091Z,74
2024-04-13T01:00:08.554Z,74
2024-04-13T01:02:11.603Z,74
2024-04-13T01:03:42.705Z,74
2024-04-13T01:05:13.205Z,74
2024-04-13T01:06:43.846Z,74
2024-04-13T01:08:14.683Z,74
2024-04-13T01:10:17.295Z,75
2024-04-13T01:11:47.809Z,75
2024-04-13T01:13:18.459Z,75
2024-04-13T01:14:49.230Z,75
2024-04-13T01:16:19.797Z,75
2024-04-13T01:18:22.800Z,74
2024-04-13T01:19:53.304Z,74
2024-04-13T01:21:23.758Z,74
2024-04-13T01:23:26.872Z,74
2024-04-13T01:24:57.598Z,74
2024-04-13T01:26:28.159Z,74
2024-04-13T01:27:58.825Z,74
2024-04-13T01:29:29.888Z,74
2024-04-13T01:31:00.728Z,74
2024-04-13T01:32:31.294Z,74
2024-04-13T01:34:01.982Z,74
2024-04-13T01:35:32.720Z,74
2024-04-13T01:37:03.363Z,74
2024-04-13T01:39:06.430Z,74
2024-04-13T01:40:37.338Z,74
2024-04-13T01:42:07.869Z,74
2024-04-13T01:44:10.497Z,74
2024-04-13T01:45:41.516Z,74
2024-04-13T01:47:12.200Z,74
2024-04-13T01:48:42.840Z,74
2024-04-13T01:50:13.714Z,74
2024-04-13T01:51:44.583Z,74
2024-04-13T01:53:15.166Z,74
2024-04-13T01:54:46.123Z,74
2024-04-13T01:56:16.991Z,74
2024-04-13T01:57:47.614Z,74
2024-04-13T01:59:18.363Z,74
2024-04-13T02:00:49.173Z,74
2024-04-13T02:02:19.899Z,74
2024-04-13T02:03:50.473Z,74
2024-04-13T02:05:20.968Z,74
2024-04-13T02:06:51.948Z,74
2024-04-13T02:08:22.664Z,74
2024-04-13T02:09:53.365Z,74
2024-04-13T02:11:24.312Z,74
2024-04-13T02:12:55.120Z,74
2024-04-13T02:14:26.065Z,74
2024-04-13T02:15:57.035Z,74
2024-04-13T02:17:27.751Z,74
2024-04-13T02:18:58.457Z,74
2024-04-13T02:20:29.303Z,74
2024-04-13T02:21:59.846Z,74
2024-04-13T02:23:30.928Z,74
2024-04-13T02:25:01.868Z,74
2024-04-13T02:26:32.512Z,74
2024-04-13T02:28:03.285Z,74
2024-04-13T02:29:34.190Z,74
2024-04-13T02:31:05.128Z,74
2024-04-13T02:32:36.145Z,74
2024-04-13T02:34:10.094Z,74
2024-04-13T02:35:40.869Z,74
2024-04-13T02:37:11.931Z,74
2024-04-13T02:38:42.526Z,74
2024-04-13T02:40:45.207Z,74
2024-04-13T02:42:16.178Z,74
2024-04-13T02:43:46.613Z,74
2024-04-13T02:45:49.543Z,74
2024-04-13T02:47:20.343Z,74
2024-04-13T02:48:51.042Z,74
2024-04-13T02:50:21.554Z,74
2024-04-13T02:51:52.001Z,74
2024-04-13T02:53:22.631Z,74
2024-04-13T02:54:53.346Z,74
2024-04-13T02:56:23.863Z,74
2024-04-13T02:57:54.861Z,74
2024-04-13T02:59:25.281Z,74
2024-04-13T03:00:55.976Z,74
2024-04-13T03:02:26.838Z,74
2024-04-13T03:04:29.670Z,74
2024-04-13T03:06:00.134Z,74
2024-04-13T03:07:31.013Z,74
2024-04-13T03:09:01.616Z,74
2024-04-13T03:10:32.296Z,74
2024-04-13T03:12:03.146Z,74
2024-04-13T03:13:33.952Z,74
2024-04-13T03:15:04.700Z,74
2024-04-13T03:16:35.074Z,74
2024-04-13T03:18:05.697Z,74
2024-04-13T03:19:36.318Z,74
2024-04-13T03:21:06.904Z,74
2024-04-13T03:22:37.800Z,74
2024-04-13T03:24:08.942Z,73
2024-04-13T03:25:39.742Z,74
2024-04-13T03:27:10.315Z,73
2024-04-13T03:28:41.120Z,74
2024-04-13T03:30:12.418Z,74
2024-04-13T03:31:43.094Z,74
2024-04-13T03:33:13.570Z,74
2024-04-13T03:34:43.930Z,74
2024-04-13T03:36:14.535Z,73
2024-04-13T03:37:45.488Z,74
2024-04-13T03:39:16.110Z,74
2024-04-13T03:40:46.941Z,74
2024-04-13T03:42:17.679Z,73
2024-04-13T03:43:48.493Z,74
2024-04-13T03:45:18.770Z,73
2024-04-13T03:46:49.394Z,73
2024-04-13T03:48:20.164Z,74
2024-04-13T03:49:50.472Z,73
2024-04-13T03:51:21.466Z,73
2024-04-13T03:52:52.031Z,73
2024-04-13T03:54:22.700Z,73
2024-04-13T03:55:53.144Z,73
2024-04-13T03:57:55.966Z,73
2024-04-13T03:59:26.891Z,73
2024-04-13T04:00:57.419Z,73
2024-04-13T04:02:27.817Z,73
2024-04-13T04:03:58.785Z,73
2024-04-13T04:06:01.396Z,73
2024-04-13T04:08:04.244Z,73
2024-04-13T04:09:34.740Z,73
2024-04-13T04:11:05.424Z,73
2024-04-13T04:12:36.438Z,73
2024-04-13T04:14:06.992Z,73
2024-04-13T04:15:37.850Z,73
2024-04-13T04:18:44.159Z,73
2024-04-13T04:20:14.679Z,73
2024-04-13T04:21:45.317Z,73
2024-04-13T04:23:15.800Z,73
2024-04-13T04:24:46.717Z,73
2024-04-13T04:26:17.450Z,73
2024-04-13T04:28:20.030Z,73
2024-04-13T04:29:50.529Z,73
2024-04-13T04:31:21.106Z,73
2024-04-13T04:32:52.142Z,73
2024-04-13T04:34:22.765Z,73
2024-04-13T04:35:53.206Z,73
2024-04-13T04:37:23.828Z,73
2024-04-13T04:39:26.368Z,73
2024-04-13T04:40:56.867Z,73
2024-04-13T04:42:27.827Z,73
2024-04-13T04:43:58.361Z,73
2024-04-13T04:45:29.198Z,73
2024-04-13T04:46:59.775Z,73
2024-04-13T04:48:30.486Z,73
2024-04-13T04:50:32.826Z,73
2024-04-13T04:52:03.612Z,73
2024-04-13T04:53:34.500Z,73
2024-04-13T04:55:04.951Z,73
2024-04-13T04:56:35.577Z,73
2024-04-13T04:58:05.869Z,73
2024-04-13T04:59:36.577Z,73
2024-04-13T05:01:07.032Z,73
2024-04-13T05:02:37.453Z,73
2024-04-13T05:04:08.168Z,73
2024-04-13T05:06:10.652Z,73
2024-04-13T05:07:41.164Z,73
2024-04-13T05:09:11.773Z,73
2024-04-13T05:10:42.276Z,73
2024-04-13T05:12:12.762Z,73
2024-04-13T05:13:43.520Z,73
2024-04-13T05:15:14.300Z,73
2024-04-13T05:16:44.845Z,73
2024-04-13T05:18:15.382Z,73
2024-04-13T05:19:46.074Z,73
2024-04-13T05:21:48.652Z,73
2024-04-13T05:23:19.271Z,73
2024-04-13T05:24:49.828Z,73
2024-04-13T05:26:20.301Z,73
2024-04-13T05:27:50.846Z,73
2024-04-13T05:29:23.607Z,73
2024-04-13T05:30:51.924Z,73
2024-04-13T05:32:22.500Z,73
2024-04-13T05:33:53.155Z,73
2024-04-13T05:35:23.531Z,73
2024-04-13T05:36:54.167Z,73
2024-04-13T05:38:24.886Z,73
2024-04-13T05:39:55.606Z,73
2024-04-13T05:41:26.393Z,73
2024-04-13T05:42:56.974Z,73
2024-04-13T05:44:27.559Z,73
2024-04-13T05:46:30.057Z,73
2024-04-13T05:48:00.643Z,73
2024-04-13T05:50:03.379Z,73
2024-04-13T05:51:33.795Z,73
2024-04-13T05:53:04.332Z,73
2024-04-13T05:54:34.948Z,73
2024-04-13T05:56:05.597Z,73
2024-04-13T05:57:36.326Z,73
2024-04-13T05:59:06.828Z,73
2024-04-13T06:00:37.458Z,73
2024-04-13T06:02:07.920Z,73
2024-04-13T06:03:38.661Z,73
2024-04-13T06:05:42.513Z,73
2024-04-13T06:07:43.962Z,73
2024-04-13T06:09:14.518Z,73
2024-04-13T06:10:45.186Z,73
2024-04-13T06:12:15.675Z,73
2024-04-13T06:13:46.417Z,73
2024-04-13T06:15:16.974Z,73
2024-04-13T06:16:47.532Z,73
2024-04-13T06:18:18.113Z,73
2024-04-13T06:19:48.708Z,73
2024-04-13T06:21:51.342Z,73
2024-04-13T06:23:21.739Z,73
2024-04-13T06:24:52.299Z,73
2024-04-13T06:26:23.006Z,73
2024-04-13T06:27:53.714Z,73
2024-04-13T06:29:56.379Z,73
2024-04-13T06:31:26.738Z,73
2024-04-13T06:32:57.558Z,73
2024-04-13T06:34:28.163Z,73
2024-04-13T06:35:58.567Z,73
2024-04-13T06:37:29.035Z,73
2024-04-13T06:38:59.973Z,73
2024-04-13T06:40:30.637Z,73
2024-04-13T06:42:01.183Z,73
2024-04-13T06:43:31.764Z,73
2024-04-13T06:45:02.358Z,73
2024-04-13T06:46:33.165Z,73
2024-04-13T06:48:03.775Z,73
2024-04-13T06:49:34.674Z,73
2024-04-13T06:51:05.220Z,73
2024-04-13T06:52:35.607Z,73
2024-04-13T06:54:06.108Z,73
2024-04-13T06:55:36.711Z,73
2024-04-13T06:57:39.266Z,73
2024-04-13T06:59:09.765Z,73
2024-04-13T07:00:40.480Z,73
2024-04-13T07:02:10.772Z,73
2024-04-13T07:03:41.392Z,73
2024-04-13T07:05:11.866Z,73
2024-04-13T07:06:42.537Z,73
2024-04-13T07:08:13.130Z,73
2024-04-13T07:09:43.683Z,73
2024-04-13T07:11:14.373Z,73
2024-04-13T07:12:45.022Z,73
2024-04-13T07:14:15.380Z,73
2024-04-13T07:15:46.035Z,73
2024-04-13T07:17:16.514Z,73
2024-04-13T07:18:47.123Z,73
2024-04-13T07:20:17.670Z,73
2024-04-13T07:21:48.206Z,73
2024-04-13T07:23:18.806Z,73
2024-04-13T07:24:49.385Z,73
2024-04-13T07:26:19.762Z,73
2024-04-13T07:27:50.319Z,73
2024-04-13T07:29:20.878Z,73
2024-04-13T07:30:51.590Z,73
2024-04-13T07:32:22.088Z,73
2024-04-13T07:33:52.807Z,73
2024-04-13T07:35:55.393Z,73
2024-04-13T07:37:25.822Z,73
2024-04-13T07:38:56.712Z,73
2024-04-13T07:40:26.985Z,73
2024-04-13T07:41:57.531Z,73
2024-04-13T07:43:28.048Z,73
2024-04-13T07:44:58.508Z,73
2024-04-13T07:46:29.178Z,73
2024-04-13T07:48:31.675Z,73
2024-04-13T07:50:01.999Z,73
2024-04-13T07:51:35.110Z,73
2024-04-13T07:53:05.611Z,73
2024-04-13T07:54:36.151Z,73
2024-04-13T07:56:06.675Z,73
2024-04-13T07:57:37.351Z,73
2024-04-13T07:59:07.788Z,73
2024-04-13T08:00:38.434Z,73
2024-04-13T08:02:09.103Z,73
2024-04-13T08:03:39.774Z,73
2024-04-13T08:05:10.130Z,73
2024-04-13T08:06:40.658Z,73
2024-04-13T08:08:11.263Z,73
2024-04-13T08:09:41.763Z,73
2024-04-13T08:11:15.203Z,73
2024-04-13T08:12:45.729Z,73
2024-04-13T08:14:16.760Z,73
2024-04-13T08:15:47.118Z,74
2024-04-13T08:17:17.432Z,76
2024-04-13T08:18:48.106Z,78
2024-04-13T08:20:18.727Z,78
2024-04-13T08:21:49.154Z,80
2024-04-13T08:23:22.381Z,80
2024-04-13T08:24:53.201Z,80
2024-04-13T08:26:23.679Z,81
2024-04-13T08:27:54.219Z,82
2024-04-13T08:29:24.694Z,82
2024-04-13T08:30:55.429Z,82
2024-04-13T08:32:25.896Z,82
2024-04-13T08:33:56.504Z,82
2024-04-13T08:35:26.915Z,81
2024-04-13T08:36:57.470Z,81
2024-04-13T08:39:00.105Z,82
2024-04-13T08:40:30.469Z,82
2024-04-13T08:42:01.361Z,81
2024-04-13T08:43:31.971Z,81
2024-04-13T08:45:02.372Z,80
2024-04-13T08:46:32.856Z,81
2024-04-13T08:48:03.656Z,81
2024-04-13T08:50:07.095Z,81
2024-04-13T08:51:36.533Z,82
2024-04-13T08:53:07.117Z,81
2024-04-13T08:54:37.667Z,82
2024-04-13T08:56:10.887Z,81
2024-04-13T08:57:38.758Z,81
2024-04-13T08:59:09.458Z,81
2024-04-13T09:00:39.880Z,81
2024-04-13T09:02:12.321Z,81
2024-04-13T09:04:13.216Z,81
2024-04-13T09:05:43.674Z,81
2024-04-13T09:07:14.218Z,81
2024-04-13T09:08:44.700Z,81
2024-04-13T09:10:15.189Z,83
2024-04-13T09:11:45.823Z,82
2024-04-13T09:13:16.364Z,83
2024-04-13T09:15:21.714Z,84
2024-04-13T09:16:54.924Z,83
2024-04-13T09:18:25.612Z,84
2024-04-13T09:19:58.854Z,84
2024-04-13T09:21:29.556Z,83
2024-04-13T09:23:00.082Z,83
2024-04-13T09:24:30.594Z,83
2024-04-13T09:26:01.185Z,83
2024-04-13T09:27:31.730Z,82
2024-04-13T09:29:02.156Z,82
2024-04-13T09:30:32.738Z,81
2024-04-13T09:32:03.185Z,81
2024-04-13T09:34:05.665Z,80
2024-04-13T09:35:36.212Z,80
2024-04-13T09:37:06.728Z,80
2024-04-13T09:38:37.363Z,80
2024-04-13T09:40:07.859Z,80
2024-04-13T09:41:38.383Z,80
2024-04-13T09:43:09.004Z,80
2024-04-13T09:44:39.562Z,80
2024-04-13T09:46:10.047Z,79
2024-04-13T09:47:43.662Z,79
2024-04-13T09:49:14.191Z,80
2024-04-13T09:50:44.831Z,79
2024-04-13T09:52:15.206Z,79
2024-04-13T09:53:45.689Z,80
2024-04-13T09:55:16.122Z,79
2024-04-13T09:56:46.659Z,79
2024-04-13T09:58:17.159Z,79
2024-04-13T10:00:19.793Z,79
2024-04-13T10:02:22.228Z,79
2024-04-13T10:03:52.778Z,79
2024-04-13T10:05:23.386Z,79
2024-04-13T10:06:53.960Z,79
2024-04-13T10:08:24.448Z,79
2024-04-13T10:09:54.960Z,79
2024-04-13T10:11:25.565Z,79
2024-04-13T10:13:28.035Z,79
2024-04-13T10:14:58.593Z,79
2024-04-13T10:16:29.154Z,79
2024-04-13T10:17:59.627Z,79
2024-04-13T10:19:30.140Z,79
2024-04-13T10:21:00.698Z,79
2024-04-13T10:24:01.761Z,79
2024-04-13T10:25:32.189Z,79
2024-04-13T10:27:02.810Z,79
2024-04-13T10:28:33.336Z,79
2024-04-13T10:30:03.754Z,79
2024-04-13T10:31:34.292Z,79
2024-04-13T10:33:04.779Z,79
2024-04-13T10:34:35.255Z,79
2024-04-13T10:36:05.766Z,79
2024-04-13T10:37:36.263Z,79
2024-04-13T10:39:06.919Z,79
2024-04-13T10:41:09.382Z,79
2024-04-13T10:42:39.916Z,79
2024-04-13T10:44:42.366Z,79
2024-04-13T10:46:12.899Z,79
2024-04-13T10:47:43.668Z,80
2024-04-13T10:49:15.849Z,79
2024-04-13T10:50:44.339Z,80
2024-04-13T10:52:14.940Z,80
2024-04-13T10:53:45.484Z,79
2024-04-13T10:55:18.435Z,79
2024-04-13T10:56:52.425Z,80
2024-04-13T10:58:19.419Z,79
2024-04-13T10:59:49.892Z,79
2024-04-13T11:01:20.508Z,79
2024-04-13T11:02:50.931Z,80
2024-04-13T11:04:53.413Z,79
2024-04-13T11:06:23.946Z,80
2024-04-13T11:07:54.432Z,79
2024-04-13T11:09:25.088Z,80
2024-04-13T11:10:55.665Z,80
2024-04-13T11:12:26.144Z,80
2024-04-13T11:13:56.617Z,80
2024-04-13T11:15:27.217Z,80
2024-04-13T11:16:57.719Z,80
2024-04-13T11:18:28.368Z,80
2024-04-13T11:19:58.662Z,80
2024-04-13T11:21:29.201Z,80
2024-04-13T11:23:31.773Z,80
2024-04-13T11:25:34.253Z,80
2024-04-13T11:27:04.846Z,80
2024-04-13T11:29:07.331Z,80
2024-04-13T11:30:37.857Z,80
2024-04-13T11:32:08.643Z,80
2024-04-13T11:33:39.201Z,80
2024-04-13T11:35:09.710Z,80
2024-04-13T11:36:40.213Z,80
2024-04-13T11:38:10.703Z,80
2024-04-13T11:39:41.382Z,80
2024-04-13T11:41:11.877Z,80
2024-04-13T11:42:49.255Z,80
2024-04-13T11:44:12.823Z,80
2024-04-13T11:45:43.345Z,80
2024-04-13T11:47:13.984Z,80
2024-04-13T11:48:44.523Z,80
2024-04-13T11:50:14.927Z,80
2024-04-13T11:52:17.442Z,80
2024-04-13T11:53:49.581Z,80
2024-04-13T11:55:18.502Z,80
2024-04-13T11:56:51.112Z,80
2024-04-13T11:58:19.528Z,80
2024-04-13T11:59:50.079Z,80
2024-04-13T12:01:20.907Z,80
2024-04-13T12:02:51.207Z,80
2024-04-13T12:04:21.715Z,80
2024-04-13T12:05:52.253Z,80
2024-04-13T12:07:22.838Z,80
2024-04-13T12:09:25.369Z,80
2024-04-13T12:10:55.884Z,80
2024-04-13T12:12:26.787Z,80
2024-04-13T12:13:57.102Z,81
2024-04-13T12:15:27.657Z,81
2024-04-13T12:16:58.160Z,80
2024-04-13T12:18:28.787Z,80
2024-04-13T12:19:59.207Z,81
2024-04-13T12:21:29.734Z,81
2024-04-13T12:23:00.230Z,80
2024-04-13T12:24:30.881Z,80
2024-04-13T12:26:01.287Z,80
2024-04-13T12:27:31.855Z,80
2024-04-13T12:29:02.460Z,80
2024-04-13T12:30:32.982Z,81
2024-04-13T12:32:03.261Z,80
2024-04-13T12:34:05.778Z,80
2024-04-13T12:35:36.233Z,80
2024-04-13T12:37:38.735Z,80
2024-04-13T12:39:09.351Z,80
2024-04-13T12:40:39.881Z,81
2024-04-13T12:42:10.402Z,80
2024-04-13T12:43:40.954Z,81
2024-04-13T12:45:11.425Z,81
2024-04-13T12:47:13.988Z,81
2024-04-13T12:49:16.483Z,81
2024-04-13T12:51:18.964Z,81
2024-04-13T12:52:51.900Z,81
2024-04-13T12:54:20.022Z,81
2024-04-13T12:55:50.531Z,81
2024-04-13T12:57:23.593Z,81
2024-04-13T12:58:54.116Z,81
2024-04-13T13:00:24.788Z,81
2024-04-13T13:01:55.206Z,80
2024-04-13T13:03:25.873Z,81
2024-04-13T13:04:56.360Z,80
2024-04-13T13:06:26.839Z,80
2024-04-13T13:07:57.240Z,81
2024-04-13T13:09:27.782Z,81
2024-04-13T13:10:58.416Z,81
2024-04-13T13:12:28.993Z,81
2024-04-13T13:13:59.500Z,81
2024-04-13T13:15:30.181Z,81
2024-04-13T13:17:00.819Z,81
2024-04-13T13:18:31.264Z,81
2024-04-13T13:20:01.748Z,82
2024-04-13T13:21:32.252Z,82
2024-04-13T13:23:02.732Z,82
2024-04-13T13:24:33.260Z,82
2024-04-13T13:26:03.714Z,81
2024-04-13T13:27:34.330Z,81
2024-04-13T13:29:04.861Z,81
2024-04-13T13:31:07.317Z,81
2024-04-13T13:33:09.897Z,81
2024-04-13T13:34:40.366Z,81
2024-04-13T13:36:10.856Z,81
2024-04-13T13:37:41.401Z,81
2024-04-13T13:39:11.914Z,81
2024-04-13T13:40:42.447Z,81
2024-04-13T13:42:12.954Z,81
2024-04-13T13:43:43.446Z,81
2024-04-13T13:45:14.146Z,81
2024-04-13T13:46:44.595Z,81
2024-04-13T13:48:15.191Z,81
2024-04-13T13:49:45.804Z,81
2024-04-13T13:51:16.335Z,81
2024-04-13T13:52:48.536Z,81
2024-04-13T13:54:17.515Z,81
2024-04-13T13:55:47.958Z,81
2024-04-13T13:57:18.485Z,81
2024-04-13T13:58:48.975Z,81
2024-04-13T14:00:19.486Z,81
2024-04-13T14:01:49.965Z,81
2024-04-13T14:03:20.668Z,81
2024-04-13T14:04:51.191Z,81
2024-04-13T14:06:21.722Z,82
2024-04-13T14:07:52.368Z,82
2024-04-13T14:09:22.877Z,82
2024-04-13T14:10:53.592Z,81
2024-04-13T14:12:56.080Z,81
2024-04-13T14:14:26.603Z,81
2024-04-13T14:15:57.568Z,81
2024-04-13T14:17:27.779Z,81
2024-04-13T14:18:58.389Z,81
2024-04-13T14:20:28.904Z,81
2024-04-13T14:21:59.496Z,81
2024-04-13T14:23:30.145Z,81
2024-04-13T14:25:00.656Z,82
2024-04-13T14:27:35.267Z,82
2024-04-13T14:29:05.911Z,82
2024-04-13T14:30:36.564Z,82
2024-04-13T14:32:06.982Z,82
2024-04-13T14:33:37.569Z,82
2024-04-13T14:35:07.979Z,82
2024-04-13T14:37:10.557Z,81
2024-04-13T14:38:41.074Z,81
2024-04-13T14:40:11.618Z,81
2024-04-13T14:41:42.099Z,81
2024-04-13T14:43:12.603Z,81
2024-04-13T14:44:43.294Z,82
2024-04-13T14:46:13.779Z,82
2024-04-13T14:48:16.389Z,82
2024-04-13T14:49:46.763Z,82
2024-04-13T14:51:17.423Z,82
2024-04-13T14:52:47.814Z,82
2024-04-13T14:54:50.670Z,81
2024-04-13T14:56:20.897Z,81
2024-04-13T14:57:53.112Z,81
2024-04-13T14:59:24.901Z,81
2024-04-13T15:00:55.486Z,81
2024-04-13T15:02:57.929Z,81
2024-04-13T15:04:29.408Z,81
2024-04-13T15:05:58.964Z,80
2024-04-13T15:08:01.455Z,80
2024-04-13T15:09:32.014Z,80
2024-04-13T15:11:02.601Z,80
2024-04-13T15:12:33.073Z,80
2024-04-13T15:14:03.560Z,80
2024-04-13T15:15:34.287Z,80
2024-04-13T15:17:36.917Z,80
2024-04-13T15:19:07.586Z,80
2024-04-13T15:20:38.074Z,80
2024-04-13T15:22:08.546Z,80
2024-04-13T15:23:39.113Z,80
2024-04-13T15:25:41.683Z,80
2024-04-13T15:27:12.151Z,80
2024-04-13T15:28:42.699Z,80
2024-04-13T15:30:13.412Z,80
2024-04-13T15:31:43.827Z,80
2024-04-13T15:33:14.342Z,80
2024-04-13T15:34:44.948Z,80
2024-04-13T15:36:15.557Z,81
2024-04-13T15:37:45.950Z,80
2024-04-13T15:39:48.640Z,80
2024-04-13T15:41:19.095Z,80
2024-04-13T15:42:49.848Z,80
2024-04-13T15:44:52.290Z,80
2024-04-13T15:46:22.790Z,80
2024-04-13T15:47:53.234Z,80
2024-04-13T15:49:23.755Z,80
2024-04-13T15:50:54.317Z,79
2024-04-13T15:52:24.772Z,79
2024-04-13T15:54:27.303Z,79
2024-04-13T15:55:57.840Z,80
2024-04-13T15:57:28.359Z,79
2024-04-13T15:59:01.183Z,79
2024-04-13T16:00:29.293Z,79
2024-04-13T16:01:59.879Z,79
2024-04-13T16:04:02.446Z,79
2024-04-13T16:05:32.848Z,79
2024-04-13T16:07:03.372Z,79
2024-04-13T16:08:33.950Z,79
2024-04-13T16:10:04.547Z,79
2024-04-13T16:11:34.948Z,79
2024-04-13T16:13:05.608Z,79
2024-04-13T16:14:36.191Z,79
2024-04-13T16:16:38.737Z,79
2024-04-13T16:18:09.414Z,79
2024-04-13T16:19:40.146Z,79
2024-04-13T16:21:10.429Z,79
2024-04-13T16:22:41.051Z,79
2024-04-13T16:24:11.704Z,79
2024-04-13T16:25:42.080Z,79
2024-04-13T16:27:12.648Z,79
2024-04-13T16:28:43.216Z,79
2024-04-13T16:30:13.750Z,79
2024-04-13T16:32:16.330Z,79
2024-04-13T16:33:46.911Z,79
2024-04-13T16:35:17.399Z,79
2024-04-13T16:36:47.923Z,79
2024-04-13T16:38:18.332Z,79
2024-04-13T16:40:21.049Z,79
2024-04-13T16:41:54.637Z,79
2024-04-13T16:43:57.076Z,79
2024-04-13T16:45:27.766Z,79
2024-04-13T16:46:58.216Z,79
2024-04-13T16:48:28.917Z,79
2024-04-13T16:49:59.340Z,79
2024-04-13T16:51:40.744Z,79
2024-04-13T16:53:03.108Z,79
2024-04-13T16:54:33.672Z,79
2024-04-13T16:56:04.168Z,79
2024-04-13T16:57:34.631Z,79
2024-04-13T16:59:05.087Z,79
2024-04-13T17:00:35.626Z,79
2024-04-13T17:02:06.144Z,79
2024-04-13T17:03:36.771Z,79
2024-04-13T17:05:07.262Z,78
2024-04-13T17:06:37.801Z,78
2024-04-13T17:08:08.311Z,79
2024-04-13T17:09:38.927Z,79
2024-04-13T17:11:09.405Z,78
2024-04-13T17:12:39.952Z,78
2024-04-13T17:14:10.485Z,78
2024-04-13T17:15:41.041Z,78
2024-04-13T17:17:11.452Z,78
2024-04-13T17:18:42.103Z,78
2024-04-13T17:20:12.672Z,78
2024-04-13T17:21:43.306Z,78
2024-04-13T17:23:13.723Z,78
2024-04-13T17:24:44.259Z,78
2024-04-13T17:26:14.804Z,78
2024-04-13T17:27:45.383Z,78
2024-04-13T17:29:15.852Z,78
2024-04-13T17:30:46.382Z,78
2024-04-13T17:32:16.973Z,78
2024-04-13T17:33:47.447Z,78
2024-04-13T17:35:17.903Z,78
2024-04-13T17:36:48.457Z,78
2024-04-13T17:38:18.932Z,78
2024-04-13T17:39:49.565Z,78
2024-04-13T17:41:20.135Z,78
2024-04-13T17:42:50.544Z,78
2024-04-13T17:44:21.015Z,78
2024-04-13T17:45:51.667Z,78
2024-04-13T17:47:22.187Z,78
2024-04-13T17:49:24.697Z,78
2024-04-13T17:50:55.272Z,78
2024-04-13T17:52:26.016Z,78
2024-04-13T17:53:56.561Z,78
2024-04-13T17:55:27.036Z,78
2024-04-13T17:57:29.608Z,78
2024-04-13T17:59:00.072Z,78
2024-04-13T18:00:30.627Z,78
2024-04-13T18:02:01.126Z,78
2024-04-13T18:03:31.712Z,79
2024-04-13T18:05:02.388Z,78
2024-04-13T18:06:32.787Z,79
2024-04-13T18:08:03.358Z,78
2024-04-13T18:10:05.958Z,79
2024-04-13T18:12:08.422Z,79
2024-04-13T18:13:38.991Z,79
2024-04-13T18:15:09.632Z,79
2024-04-13T18:16:40.102Z,79
2024-04-13T18:18:10.822Z,79
2024-04-13T18:19:41.234Z,79
2024-04-13T18:21:11.835Z,78
2024-04-13T18:22:42.305Z,78
2024-04-13T18:24:12.875Z,78
2024-04-13T18:25:43.430Z,78
2024-04-13T18:27:14.090Z,78
2024-04-13T18:28:44.637Z,78
2024-04-13T18:30:15.209Z,78
2024-04-13T18:31:45.624Z,78
2024-04-13T18:33:16.174Z,78
2024-04-13T18:35:18.783Z,78
2024-04-13T18:36:49.399Z,78
2024-04-13T18:38:53.193Z,78
2024-04-13T18:40:22.446Z,78
2024-04-13T18:41:53.120Z,78
2024-04-13T18:43:23.612Z,78
2024-04-13T18:44:54.161Z,78
2024-04-13T18:46:24.712Z,78
2024-04-13T18:48:27.385Z,78
2024-04-13T18:50:30.161Z,78
2024-04-13T18:52:00.510Z,78
2024-04-13T18:53:31.026Z,78
2024-04-13T18:55:01.656Z,78
2024-04-13T18:57:04.231Z,78
2024-04-13T18:58:34.877Z,78
2024-04-13T19:00:05.281Z,78
2024-04-13T19:01:35.819Z,78
2024-04-13T19:03:06.403Z,78
2024-04-13T19:05:08.884Z,78
2024-04-13T19:06:39.502Z,78
2024-04-13T19:08:10.143Z,78
2024-04-13T19:09:43.436Z,78
2024-04-13T19:11:14.104Z,78
2024-04-13T19:12:44.699Z,78
2024-04-13T19:14:15.130Z,78
2024-04-13T19:15:50.244Z,78
2024-04-13T19:17:16.053Z,78
2024-04-13T19:18:46.780Z,78
2024-04-13T19:20:17.139Z,78
2024-04-13T19:22:19.732Z,78
2024-04-13T19:23:50.181Z,78
2024-04-13T19:25:20.724Z,78
2024-04-13T19:26:51.412Z,78
2024-04-13T19:28:21.943Z,78
2024-04-13T19:29:52.460Z,78
2024-04-13T19:31:23.111Z,78
2024-04-13T19:32:53.801Z,78
2024-04-13T19:34:24.168Z,78
2024-04-13T19:35:54.648Z,78
2024-04-13T19:37:25.308Z,78
2024-04-13T19:38:55.936Z,78
2024-04-13T19:40:26.365Z,78
2024-04-13T19:41:56.866Z,78
2024-04-13T19:43:27.367Z,78
2024-04-13T19:44:57.954Z,78
2024-04-13T19:46:28.437Z,78
2024-04-13T19:47:59.033Z,78
2024-04-13T19:49:29.603Z,78
2024-04-13T19:51:32.199Z,78
2024-04-13T19:53:02.550Z,78
2024-04-13T19:54:33.163Z,78
2024-04-13T19:56:35.753Z,78
2024-04-13T19:58:38.232Z,78
2024-04-13T20:00:08.806Z,78
2024-04-13T20:01:39.319Z,78
2024-04-13T20:03:09.857Z,78
2024-04-13T20:04:40.516Z,78
2024-04-13T20:06:42.993Z,78
2024-04-13T20:08:45.857Z,78
2024-04-13T20:10:48.268Z,78
2024-04-13T20:12:19.361Z,78
2024-04-13T20:13:49.310Z,78
2024-04-13T20:15:19.843Z,78
2024-04-13T20:16:50.373Z,78
2024-04-13T20:18:20.971Z,78
2024-04-13T20:19:51.489Z,78
2024-04-13T20:21:21.988Z,78
2024-04-13T20:22:52.522Z,78
2024-04-13T20:24:23.158Z,78
2024-04-13T20:25:53.965Z,78
2024-04-13T20:27:24.536Z,78
2024-04-13T20:28:55.084Z,78
2024-04-13T20:30:25.899Z,78
2024-04-13T20:31:56.311Z,78
2024-04-13T20:33:26.869Z,78
2024-04-13T20:35:29.741Z,78
2024-04-13T20:37:32.305Z,78
2024-04-13T20:39:02.896Z,78
2024-04-13T20:40:33.541Z,78
2024-04-13T20:42:04.021Z,78
2024-04-13T20:43:36.161Z,78
2024-04-13T20:45:05.180Z,78
2024-04-13T20:46:35.755Z,78
2024-04-13T20:48:06.555Z,78
2024-04-13T20:49:36.969Z,78
2024-04-13T20:51:07.579Z,78
2024-04-13T20:52:48.624Z,78
2024-04-13T20:54:08.511Z,78
2024-04-13T20:55:39.040Z,78
2024-04-13T20:57:09.677Z,78
2024-04-13T20:58:40.121Z,78
2024-04-13T21:00:10.721Z,78
2024-04-13T21:01:41.326Z,78
2024-04-13T21:03:11.929Z,78
2024-04-13T21:04:42.768Z,78
2024-04-13T21:06:13.297Z,78
2024-04-13T21:07:43.835Z,78
2024-04-13T21:09:14.360Z,78
2024-04-13T21:10:44.969Z,78
2024-04-13T21:12:15.539Z,78
2024-04-13T21:13:46.156Z,77
2024-04-13T21:15:16.697Z,78
2024-04-13T21:16:47.364Z,78
2024-04-13T21:18:17.981Z,78
2024-04-13T21:19:48.381Z,78
2024-04-13T21:21:19.086Z,77
2024-04-13T21:22:49.675Z,78
2024-04-13T21:24:20.365Z,78
2024-04-13T21:25:50.798Z,77
2024-04-13T21:27:21.482Z,77
2024-04-13T21:28:52.226Z,78
2024-04-13T21:30:54.750Z,78
2024-04-13T21:32:25.380Z,77
2024-04-13T21:33:55.957Z,77
2024-04-13T21:35:26.467Z,78
2024-04-13T21:37:29.023Z,77
2024-04-13T21:38:59.804Z,77
2024-04-13T21:40:30.449Z,77
2024-04-13T21:42:32.912Z,77
2024-04-13T21:44:03.513Z,77
2024-04-13T21:45:34.246Z,77
2024-04-13T21:47:36.779Z,77
2024-04-13T21:49:07.460Z,77
2024-04-13T21:50:38.408Z,77
2024-04-13T21:52:08.717Z,77
2024-04-13T21:53:39.210Z,77
2024-04-13T21:55:09.703Z,77
2024-04-13T21:56:40.244Z,78
2024-04-13T21:58:10.670Z,77
2024-04-13T21:59:41.202Z,78
2024-04-13T22:01:12.034Z,77
2024-04-13T22:03:14.648Z,77
2024-04-13T22:04:45.166Z,77
2024-04-13T22:06:15.778Z,77
2024-04-13T22:07:46.182Z,77
2024-04-13T22:09:16.695Z,77
2024-04-13T22:10:47.290Z,77
2024-04-13T22:12:17.833Z,77
2024-04-13T22:13:48.516Z,77
2024-04-13T22:15:18.870Z,77
2024-04-13T22:16:49.505Z,77
2024-04-13T22:18:20.242Z,77
2024-04-13T22:19:50.815Z,77
2024-04-13T22:21:21.306Z,77
2024-04-13T22:22:51.897Z,77
2024-04-13T22:24:22.691Z,77
2024-04-13T22:25:53.238Z,77